sensor_id;sensor_type;location;lat;lon;timestamp;P1;durP1;ratioP1;P2;durP2;ratioP2
52368;SDS011;38298;50.346;3.526;2023-05-10T00:00:28;6.70;;;3.22;;
52368;SDS011;38298;50.346;3.526;2023-05-10T00:02:54;9.27;;;3.08;;
52368;SDS011;38298;50.346;3.526;2023-05-10T00:05:20;8.30;;;2.88;;
52368;SDS011;38298;50.346;3.526;2023-05-10T00:07:46;7.70;;;3.08;;
52368;SDS011;38298;50.346;3.526;2023-05-10T00:10:12;9.55;;;3.78;;
52368;SDS011;38298;50.346;3.526;2023-05-10T00:12:38;6.65;;;3.00;;
52368;SDS011;38298;50.346;3.526;2023-05-10T00:15:04;5.82;;;3.33;;
52368;SDS011;38298;50.346;3.526;2023-05-10T00:17:30;6.07;;;3.10;;
52368;SDS011;38298;50.346;3.526;2023-05-10T00:19:56;7.38;;;3.35;;
52368;SDS011;38298;50.346;3.526;2023-05-10T00:22:22;5.38;;;2.95;;
52368;SDS011;38298;50.346;3.526;2023-05-10T00:24:48;4.40;;;2.67;;
52368;SDS011;38298;50.346;3.526;2023-05-10T00:27:14;6.28;;;2.45;;
52368;SDS011;38298;50.346;3.526;2023-05-10T00:29:43;6.63;;;2.85;;
52368;SDS011;38298;50.346;3.526;2023-05-10T00:32:09;4.63;;;2.83;;
52368;SDS011;38298;50.346;3.526;2023-05-10T00:34:35;6.20;;;2.30;;
52368;SDS011;38298;50.346;3.526;2023-05-10T00:37:01;3.28;;;2.03;;
52368;SDS011;38298;50.346;3.526;2023-05-10T00:39:27;6.85;;;2.40;;
52368;SDS011;38298;50.346;3.526;2023-05-10T00:41:53;6.43;;;2.10;;
52368;SDS011;38298;50.346;3.526;2023-05-10T00:44:19;4.97;;;2.20;;
52368;SDS011;38298;50.346;3.526;2023-05-10T00:46:46;5.82;;;2.33;;
52368;SDS011;38298;50.346;3.526;2023-05-10T00:49:12;5.93;;;2.05;;
52368;SDS011;38298;50.346;3.526;2023-05-10T00:51:38;6.38;;;2.63;;
52368;SDS011;38298;50.346;3.526;2023-05-10T00:54:04;6.05;;;2.40;;
52368;SDS011;38298;50.346;3.526;2023-05-10T00:56:31;4.32;;;2.50;;
52368;SDS011;38298;50.346;3.526;2023-05-10T00:58:57;4.20;;;2.00;;
52368;SDS011;38298;50.346;3.526;2023-05-10T01:01:23;4.22;;;2.45;;
52368;SDS011;38298;50.346;3.526;2023-05-10T01:03:50;4.05;;;2.30;;
52368;SDS011;38298;50.346;3.526;2023-05-10T01:06:17;4.15;;;2.08;;
52368;SDS011;38298;50.346;3.526;2023-05-10T01:08:43;2.95;;;2.10;;
52368;SDS011;38298;50.346;3.526;2023-05-10T01:11:09;6.93;;;2.15;;
52368;SDS011;38298;50.346;3.526;2023-05-10T01:13:36;4.40;;;2.42;;
52368;SDS011;38298;50.346;3.526;2023-05-10T01:16:03;4.30;;;2.15;;
52368;SDS011;38298;50.346;3.526;2023-05-10T01:18:30;4.10;;;2.13;;
52368;SDS011;38298;50.346;3.526;2023-05-10T01:21:00;6.38;;;2.58;;
52368;SDS011;38298;50.346;3.526;2023-05-10T01:23:45;5.30;;;2.13;;
52368;SDS011;38298;50.346;3.526;2023-05-10T01:26:39;7.70;;;2.15;;
52368;SDS011;38298;50.346;3.526;2023-05-10T01:29:11;5.53;;;2.30;;
52368;SDS011;38298;50.346;3.526;2023-05-10T01:31:58;6.80;;;2.65;;
52368;SDS011;38298;50.346;3.526;2023-05-10T01:34:34;6.20;;;2.35;;
52368;SDS011;38298;50.346;3.526;2023-05-10T01:37:02;9.88;;;2.63;;
52368;SDS011;38298;50.346;3.526;2023-05-10T01:39:43;7.10;;;2.63;;
52368;SDS011;38298;50.346;3.526;2023-05-10T01:42:10;6.80;;;2.83;;
52368;SDS011;38298;50.346;3.526;2023-05-10T01:44:41;4.40;;;2.60;;
52368;SDS011;38298;50.346;3.526;2023-05-10T01:47:15;8.82;;;2.92;;
52368;SDS011;38298;50.346;3.526;2023-05-10T01:49:53;6.45;;;2.97;;
52368;SDS011;38298;50.346;3.526;2023-05-10T01:52:20;8.43;;;3.10;;
52368;SDS011;38298;50.346;3.526;2023-05-10T01:55:00;10.85;;;3.03;;
52368;SDS011;38298;50.346;3.526;2023-05-10T01:57:27;12.30;;;2.77;;
52368;SDS011;38298;50.346;3.526;2023-05-10T01:59:56;7.00;;;2.30;;
52368;SDS011;38298;50.346;3.526;2023-05-10T02:02:23;14.93;;;2.65;;
52368;SDS011;38298;50.346;3.526;2023-05-10T02:04:50;16.10;;;2.45;;
52368;SDS011;38298;50.346;3.526;2023-05-10T02:07:18;13.02;;;2.47;;
52368;SDS011;38298;50.346;3.526;2023-05-10T02:09:44;12.23;;;2.03;;
52368;SDS011;38298;50.346;3.526;2023-05-10T02:12:14;7.20;;;2.10;;
52368;SDS011;38298;50.346;3.526;2023-05-10T02:14:41;9.77;;;1.80;;
52368;SDS011;38298;50.346;3.526;2023-05-10T02:17:07;6.43;;;1.40;;
52368;SDS011;38298;50.346;3.526;2023-05-10T02:19:35;10.10;;;2.17;;
52368;SDS011;38298;50.346;3.526;2023-05-10T02:22:02;13.10;;;2.08;;
52368;SDS011;38298;50.346;3.526;2023-05-10T02:24:29;7.28;;;1.90;;
52368;SDS011;38298;50.346;3.526;2023-05-10T02:26:55;12.07;;;1.65;;
52368;SDS011;38298;50.346;3.526;2023-05-10T02:29:22;12.70;;;2.00;;
52368;SDS011;38298;50.346;3.526;2023-05-10T02:31:49;12.70;;;1.92;;
52368;SDS011;38298;50.346;3.526;2023-05-10T02:34:16;4.82;;;1.10;;
52368;SDS011;38298;50.346;3.526;2023-05-10T02:36:42;12.38;;;1.90;;
52368;SDS011;38298;50.346;3.526;2023-05-10T02:39:08;10.95;;;1.40;;
52368;SDS011;38298;50.346;3.526;2023-05-10T02:41:37;10.68;;;1.77;;
52368;SDS011;38298;50.346;3.526;2023-05-10T02:44:03;9.18;;;1.13;;
52368;SDS011;38298;50.346;3.526;2023-05-10T02:46:32;8.95;;;1.17;;
52368;SDS011;38298;50.346;3.526;2023-05-10T02:48:58;9.27;;;1.40;;
52368;SDS011;38298;50.346;3.526;2023-05-10T02:51:25;6.13;;;1.05;;
52368;SDS011;38298;50.346;3.526;2023-05-10T02:53:54;8.80;;;1.13;;
52368;SDS011;38298;50.346;3.526;2023-05-10T02:56:25;8.30;;;1.30;;
52368;SDS011;38298;50.346;3.526;2023-05-10T02:58:51;5.85;;;1.25;;
52368;SDS011;38298;50.346;3.526;2023-05-10T03:01:17;9.02;;;1.30;;
52368;SDS011;38298;50.346;3.526;2023-05-10T03:03:43;8.82;;;1.33;;
52368;SDS011;38298;50.346;3.526;2023-05-10T03:06:09;7.97;;;1.30;;
52368;SDS011;38298;50.346;3.526;2023-05-10T03:08:35;8.57;;;1.40;;
52368;SDS011;38298;50.346;3.526;2023-05-10T03:13:49;7.30;;;1.33;;
52368;SDS011;38298;50.346;3.526;2023-05-10T03:16:22;5.30;;;1.00;;
52368;SDS011;38298;50.346;3.526;2023-05-10T03:18:54;7.50;;;1.10;;
52368;SDS011;38298;50.346;3.526;2023-05-10T03:21:22;6.95;;;1.35;;
52368;SDS011;38298;50.346;3.526;2023-05-10T03:23:51;9.20;;;1.40;;
52368;SDS011;38298;50.346;3.526;2023-05-10T03:26:26;10.75;;;1.38;;
52368;SDS011;38298;50.346;3.526;2023-05-10T03:28:53;5.85;;;2.10;;
52368;SDS011;38298;50.346;3.526;2023-05-10T03:31:20;6.60;;;1.52;;
52368;SDS011;38298;50.346;3.526;2023-05-10T03:33:47;9.27;;;1.52;;
52368;SDS011;38298;50.346;3.526;2023-05-10T03:36:13;11.10;;;1.48;;
52368;SDS011;38298;50.346;3.526;2023-05-10T03:38:39;12.73;;;1.70;;
52368;SDS011;38298;50.346;3.526;2023-05-10T03:41:05;12.60;;;2.05;;
52368;SDS011;38298;50.346;3.526;2023-05-10T03:43:31;9.18;;;1.65;;
52368;SDS011;38298;50.346;3.526;2023-05-10T03:45:57;8.18;;;1.42;;
52368;SDS011;38298;50.346;3.526;2023-05-10T03:48:23;4.88;;;1.40;;
52368;SDS011;38298;50.346;3.526;2023-05-10T03:50:49;6.35;;;1.90;;
52368;SDS011;38298;50.346;3.526;2023-05-10T03:53:15;15.13;;;1.98;;
52368;SDS011;38298;50.346;3.526;2023-05-10T03:55:41;9.18;;;1.75;;
52368;SDS011;38298;50.346;3.526;2023-05-10T03:58:10;8.85;;;1.80;;
52368;SDS011;38298;50.346;3.526;2023-05-10T04:00:36;5.72;;;1.80;;
52368;SDS011;38298;50.346;3.526;2023-05-10T04:03:02;11.60;;;2.17;;
52368;SDS011;38298;50.346;3.526;2023-05-10T04:05:28;8.57;;;1.80;;
52368;SDS011;38298;50.346;3.526;2023-05-10T04:07:54;8.18;;;1.88;;
52368;SDS011;38298;50.346;3.526;2023-05-10T04:10:20;12.77;;;1.83;;
52368;SDS011;38298;50.346;3.526;2023-05-10T04:12:46;6.57;;;1.60;;
52368;SDS011;38298;50.346;3.526;2023-05-10T04:15:12;10.82;;;1.88;;
52368;SDS011;38298;50.346;3.526;2023-05-10T04:17:38;10.10;;;1.80;;
52368;SDS011;38298;50.346;3.526;2023-05-10T04:20:04;8.35;;;1.67;;
52368;SDS011;38298;50.346;3.526;2023-05-10T04:22:31;8.88;;;1.88;;
52368;SDS011;38298;50.346;3.526;2023-05-10T04:24:57;12.95;;;1.80;;
52368;SDS011;38298;50.346;3.526;2023-05-10T04:27:23;8.95;;;2.08;;
52368;SDS011;38298;50.346;3.526;2023-05-10T04:29:49;5.40;;;2.10;;
52368;SDS011;38298;50.346;3.526;2023-05-10T04:32:15;8.10;;;2.60;;
52368;SDS011;38298;50.346;3.526;2023-05-10T04:34:42;8.27;;;2.65;;
52368;SDS011;38298;50.346;3.526;2023-05-10T04:37:08;10.55;;;2.53;;
52368;SDS011;38298;50.346;3.526;2023-05-10T04:39:34;6.25;;;2.40;;
52368;SDS011;38298;50.346;3.526;2023-05-10T04:42:01;10.13;;;2.53;;
52368;SDS011;38298;50.346;3.526;2023-05-10T04:44:27;8.02;;;2.75;;
52368;SDS011;38298;50.346;3.526;2023-05-10T04:46:54;31.58;;;7.32;;
52368;SDS011;38298;50.346;3.526;2023-05-10T04:49:20;19.13;;;7.30;;
52368;SDS011;38298;50.346;3.526;2023-05-10T04:51:46;12.45;;;4.72;;
52368;SDS011;38298;50.346;3.526;2023-05-10T04:54:12;9.05;;;3.55;;
52368;SDS011;38298;50.346;3.526;2023-05-10T04:56:38;10.75;;;3.95;;
52368;SDS011;38298;50.346;3.526;2023-05-10T04:59:05;18.40;;;4.97;;
52368;SDS011;38298;50.346;3.526;2023-05-10T05:01:31;13.55;;;3.95;;
52368;SDS011;38298;50.346;3.526;2023-05-10T05:03:57;8.35;;;3.30;;
52368;SDS011;38298;50.346;3.526;2023-05-10T05:06:24;11.57;;;3.92;;
52368;SDS011;38298;50.346;3.526;2023-05-10T05:08:50;10.00;;;3.63;;
52368;SDS011;38298;50.346;3.526;2023-05-10T05:11:17;6.13;;;2.83;;
52368;SDS011;38298;50.346;3.526;2023-05-10T05:13:43;6.57;;;2.63;;
52368;SDS011;38298;50.346;3.526;2023-05-10T05:16:09;13.18;;;2.70;;
52368;SDS011;38298;50.346;3.526;2023-05-10T05:18:36;18.63;;;5.57;;
52368;SDS011;38298;50.346;3.526;2023-05-10T05:21:02;23.63;;;9.38;;
52368;SDS011;38298;50.346;3.526;2023-05-10T05:23:28;34.83;;;12.15;;
52368;SDS011;38298;50.346;3.526;2023-05-10T05:25:55;46.08;;;16.55;;
52368;SDS011;38298;50.346;3.526;2023-05-10T05:28:21;21.38;;;8.52;;
52368;SDS011;38298;50.346;3.526;2023-05-10T05:30:47;12.70;;;5.40;;
52368;SDS011;38298;50.346;3.526;2023-05-10T05:33:13;9.70;;;2.83;;
52368;SDS011;38298;50.346;3.526;2023-05-10T05:35:40;17.38;;;2.83;;
52368;SDS011;38298;50.346;3.526;2023-05-10T05:38:07;8.48;;;1.90;;
52368;SDS011;38298;50.346;3.526;2023-05-10T05:40:33;5.68;;;1.83;;
52368;SDS011;38298;50.346;3.526;2023-05-10T05:42:59;5.80;;;1.88;;
52368;SDS011;38298;50.346;3.526;2023-05-10T05:45:25;4.97;;;1.50;;
52368;SDS011;38298;50.346;3.526;2023-05-10T05:47:51;4.78;;;1.38;;
52368;SDS011;38298;50.346;3.526;2023-05-10T05:50:17;5.97;;;1.90;;
52368;SDS011;38298;50.346;3.526;2023-05-10T05:52:43;6.57;;;2.47;;
52368;SDS011;38298;50.346;3.526;2023-05-10T05:55:09;16.67;;;4.70;;
52368;SDS011;38298;50.346;3.526;2023-05-10T05:57:36;18.67;;;7.53;;
52368;SDS011;38298;50.346;3.526;2023-05-10T06:00:02;16.98;;;6.47;;
52368;SDS011;38298;50.346;3.526;2023-05-10T06:02:29;8.88;;;5.25;;
52368;SDS011;38298;50.346;3.526;2023-05-10T06:04:55;14.88;;;5.85;;
52368;SDS011;38298;50.346;3.526;2023-05-10T06:07:21;11.55;;;5.65;;
52368;SDS011;38298;50.346;3.526;2023-05-10T06:09:47;8.65;;;4.03;;
52368;SDS011;38298;50.346;3.526;2023-05-10T06:12:12;12.02;;;4.28;;
52368;SDS011;38298;50.346;3.526;2023-05-10T06:14:40;10.57;;;5.53;;
52368;SDS011;38298;50.346;3.526;2023-05-10T06:17:06;10.50;;;3.72;;
52368;SDS011;38298;50.346;3.526;2023-05-10T06:19:32;11.48;;;2.97;;
52368;SDS011;38298;50.346;3.526;2023-05-10T06:21:58;9.48;;;1.75;;
52368;SDS011;38298;50.346;3.526;2023-05-10T06:24:24;5.18;;;1.58;;
52368;SDS011;38298;50.346;3.526;2023-05-10T06:26:50;7.78;;;1.50;;
52368;SDS011;38298;50.346;3.526;2023-05-10T06:29:16;4.90;;;1.40;;
52368;SDS011;38298;50.346;3.526;2023-05-10T06:31:42;7.47;;;1.48;;
52368;SDS011;38298;50.346;3.526;2023-05-10T06:34:08;8.07;;;1.83;;
52368;SDS011;38298;50.346;3.526;2023-05-10T06:36:36;6.47;;;1.23;;
52368;SDS011;38298;50.346;3.526;2023-05-10T06:39:02;4.43;;;1.38;;
52368;SDS011;38298;50.346;3.526;2023-05-10T06:41:28;2.97;;;1.40;;
52368;SDS011;38298;50.346;3.526;2023-05-10T06:43:54;2.25;;;1.30;;
52368;SDS011;38298;50.346;3.526;2023-05-10T06:46:20;3.35;;;1.50;;
52368;SDS011;38298;50.346;3.526;2023-05-10T06:48:46;5.40;;;1.42;;
52368;SDS011;38298;50.346;3.526;2023-05-10T06:51:12;5.60;;;1.55;;
52368;SDS011;38298;50.346;3.526;2023-05-10T06:53:38;3.50;;;1.50;;
52368;SDS011;38298;50.346;3.526;2023-05-10T06:56:04;3.03;;;1.80;;
52368;SDS011;38298;50.346;3.526;2023-05-10T06:58:30;3.72;;;1.45;;
52368;SDS011;38298;50.346;3.526;2023-05-10T07:01:03;3.95;;;1.67;;
52368;SDS011;38298;50.346;3.526;2023-05-10T07:03:30;2.53;;;1.50;;
52368;SDS011;38298;50.346;3.526;2023-05-10T07:06:02;7.65;;;1.83;;
52368;SDS011;38298;50.346;3.526;2023-05-10T07:08:29;8.55;;;2.65;;
52368;SDS011;38298;50.346;3.526;2023-05-10T07:11:00;5.43;;;1.50;;
52368;SDS011;38298;50.346;3.526;2023-05-10T07:15:52;5.47;;;1.60;;
52368;SDS011;38298;50.346;3.526;2023-05-10T07:18:18;7.75;;;1.50;;
52368;SDS011;38298;50.346;3.526;2023-05-10T07:20:44;4.30;;;1.65;;
52368;SDS011;38298;50.346;3.526;2023-05-10T07:23:10;4.75;;;1.38;;
52368;SDS011;38298;50.346;3.526;2023-05-10T07:25:36;3.90;;;1.40;;
52368;SDS011;38298;50.346;3.526;2023-05-10T07:28:02;5.32;;;1.98;;
52368;SDS011;38298;50.346;3.526;2023-05-10T07:30:28;4.72;;;2.40;;
52368;SDS011;38298;50.346;3.526;2023-05-10T07:32:54;4.63;;;2.13;;
52368;SDS011;38298;50.346;3.526;2023-05-10T07:35:20;8.30;;;2.10;;
52368;SDS011;38298;50.346;3.526;2023-05-10T07:37:46;6.28;;;1.80;;
52368;SDS011;38298;50.346;3.526;2023-05-10T07:40:12;5.43;;;2.25;;
52368;SDS011;38298;50.346;3.526;2023-05-10T07:42:38;3.03;;;1.80;;
52368;SDS011;38298;50.346;3.526;2023-05-10T07:45:05;6.25;;;1.83;;
52368;SDS011;38298;50.346;3.526;2023-05-10T07:47:31;5.38;;;2.15;;
52368;SDS011;38298;50.346;3.526;2023-05-10T07:49:57;6.35;;;2.28;;
52368;SDS011;38298;50.346;3.526;2023-05-10T07:52:23;4.35;;;1.95;;
52368;SDS011;38298;50.346;3.526;2023-05-10T07:54:49;5.07;;;2.35;;
52368;SDS011;38298;50.346;3.526;2023-05-10T07:57:15;6.32;;;2.28;;
52368;SDS011;38298;50.346;3.526;2023-05-10T07:59:42;4.20;;;2.67;;
52368;SDS011;38298;50.346;3.526;2023-05-10T08:02:09;6.70;;;2.50;;
52368;SDS011;38298;50.346;3.526;2023-05-10T08:04:35;5.60;;;2.65;;
52368;SDS011;38298;50.346;3.526;2023-05-10T08:07:01;5.07;;;2.55;;
52368;SDS011;38298;50.346;3.526;2023-05-10T08:09:27;6.95;;;2.70;;
52368;SDS011;38298;50.346;3.526;2023-05-10T08:11:53;8.60;;;2.67;;
52368;SDS011;38298;50.346;3.526;2023-05-10T08:14:19;10.55;;;2.80;;
52368;SDS011;38298;50.346;3.526;2023-05-10T08:16:45;8.40;;;3.15;;
52368;SDS011;38298;50.346;3.526;2023-05-10T08:19:11;7.85;;;2.55;;
52368;SDS011;38298;50.346;3.526;2023-05-10T08:21:37;8.05;;;2.65;;
52368;SDS011;38298;50.346;3.526;2023-05-10T08:24:05;8.45;;;3.38;;
52368;SDS011;38298;50.346;3.526;2023-05-10T08:26:32;6.47;;;2.88;;
52368;SDS011;38298;50.346;3.526;2023-05-10T08:28:58;3.25;;;2.53;;
52368;SDS011;38298;50.346;3.526;2023-05-10T08:31:24;5.55;;;3.60;;
52368;SDS011;38298;50.346;3.526;2023-05-10T08:33:50;5.57;;;4.00;;
52368;SDS011;38298;50.346;3.526;2023-05-10T08:36:17;8.55;;;4.07;;
52368;SDS011;38298;50.346;3.526;2023-05-10T08:38:46;8.20;;;4.72;;
52368;SDS011;38298;50.346;3.526;2023-05-10T08:41:13;5.55;;;3.42;;
52368;SDS011;38298;50.346;3.526;2023-05-10T08:43:39;6.75;;;3.35;;
52368;SDS011;38298;50.346;3.526;2023-05-10T08:46:06;5.28;;;3.20;;
52368;SDS011;38298;50.346;3.526;2023-05-10T08:48:34;11.13;;;6.80;;
52368;SDS011;38298;50.346;3.526;2023-05-10T08:51:00;10.50;;;7.05;;
52368;SDS011;38298;50.346;3.526;2023-05-10T08:53:28;17.77;;;8.05;;
52368;SDS011;38298;50.346;3.526;2023-05-10T08:55:54;22.55;;;9.05;;
52368;SDS011;38298;50.346;3.526;2023-05-10T08:58:20;23.42;;;11.27;;
52368;SDS011;38298;50.346;3.526;2023-05-10T09:00:48;17.48;;;10.00;;
52368;SDS011;38298;50.346;3.526;2023-05-10T09:03:15;21.90;;;12.70;;
52368;SDS011;38298;50.346;3.526;2023-05-10T09:05:42;23.15;;;11.88;;
52368;SDS011;38298;50.346;3.526;2023-05-10T09:08:09;12.05;;;7.10;;
52368;SDS011;38298;50.346;3.526;2023-05-10T09:10:35;10.02;;;6.18;;
52368;SDS011;38298;50.346;3.526;2023-05-10T09:13:02;9.65;;;5.47;;
52368;SDS011;38298;50.346;3.526;2023-05-10T09:15:29;10.35;;;5.30;;
52368;SDS011;38298;50.346;3.526;2023-05-10T09:17:55;4.07;;;3.30;;
52368;SDS011;38298;50.346;3.526;2023-05-10T09:20:22;4.82;;;2.90;;
52368;SDS011;38298;50.346;3.526;2023-05-10T09:22:48;2.90;;;2.67;;
52368;SDS011;38298;50.346;3.526;2023-05-10T09:25:15;5.80;;;3.92;;
52368;SDS011;38298;50.346;3.526;2023-05-10T09:27:43;5.18;;;3.42;;
52368;SDS011;38298;50.346;3.526;2023-05-10T09:30:10;4.65;;;2.90;;
52368;SDS011;38298;50.346;3.526;2023-05-10T09:35:06;3.17;;;2.03;;
52368;SDS011;38298;50.346;3.526;2023-05-10T09:37:32;2.35;;;1.88;;
52368;SDS011;38298;50.346;3.526;2023-05-10T09:39:58;1.95;;;1.70;;
52368;SDS011;38298;50.346;3.526;2023-05-10T09:42:24;3.35;;;1.77;;
52368;SDS011;38298;50.346;3.526;2023-05-10T09:44:50;2.33;;;1.85;;
52368;SDS011;38298;50.346;3.526;2023-05-10T09:47:19;1.65;;;1.55;;
52368;SDS011;38298;50.346;3.526;2023-05-10T09:49:49;5.18;;;1.90;;
52368;SDS011;38298;50.346;3.526;2023-05-10T09:52:16;3.30;;;2.35;;
52368;SDS011;38298;50.346;3.526;2023-05-10T09:54:45;3.58;;;2.70;;
52368;SDS011;38298;50.346;3.526;2023-05-10T09:57:20;2.15;;;1.95;;
52368;SDS011;38298;50.346;3.526;2023-05-10T09:59:47;3.30;;;1.83;;
52368;SDS011;38298;50.346;3.526;2023-05-10T10:02:13;2.75;;;1.52;;
52368;SDS011;38298;50.346;3.526;2023-05-10T10:04:39;1.80;;;1.70;;
52368;SDS011;38298;50.346;3.526;2023-05-10T10:07:06;2.42;;;1.80;;
52368;SDS011;38298;50.346;3.526;2023-05-10T10:09:33;5.07;;;2.10;;
52368;SDS011;38298;50.346;3.526;2023-05-10T10:12:02;2.20;;;1.88;;
52368;SDS011;38298;50.346;3.526;2023-05-10T10:14:29;2.47;;;1.52;;
52368;SDS011;38298;50.346;3.526;2023-05-10T10:16:55;2.42;;;1.95;;
52368;SDS011;38298;50.346;3.526;2023-05-10T10:19:21;2.55;;;1.90;;
52368;SDS011;38298;50.346;3.526;2023-05-10T10:21:48;4.85;;;2.13;;
52368;SDS011;38298;50.346;3.526;2023-05-10T10:24:15;2.97;;;1.88;;
52368;SDS011;38298;50.346;3.526;2023-05-10T10:26:41;3.10;;;1.60;;
52368;SDS011;38298;50.346;3.526;2023-05-10T10:36:49;2.90;;;1.40;;
52368;SDS011;38298;50.346;3.526;2023-05-10T10:39:15;3.45;;;1.60;;
52368;SDS011;38298;50.346;3.526;2023-05-10T10:41:51;2.40;;;1.95;;
52368;SDS011;38298;50.346;3.526;2023-05-10T10:49:31;2.83;;;2.13;;
52368;SDS011;38298;50.346;3.526;2023-05-10T10:52:14;6.85;;;3.08;;
52368;SDS011;38298;50.346;3.526;2023-05-10T10:54:41;7.20;;;3.53;;
52368;SDS011;38298;50.346;3.526;2023-05-10T10:57:10;5.05;;;3.00;;
52368;SDS011;38298;50.346;3.526;2023-05-10T10:59:41;5.20;;;2.97;;
52368;SDS011;38298;50.346;3.526;2023-05-10T11:02:08;6.38;;;2.90;;
52368;SDS011;38298;50.346;3.526;2023-05-10T11:04:43;3.97;;;2.58;;
52368;SDS011;38298;50.346;3.526;2023-05-10T11:07:20;5.00;;;3.17;;
52368;SDS011;38298;50.346;3.526;2023-05-10T11:09:46;7.88;;;3.50;;
52368;SDS011;38298;50.346;3.526;2023-05-10T11:12:12;5.13;;;3.15;;
52368;SDS011;38298;50.346;3.526;2023-05-10T11:14:39;6.95;;;3.60;;
52368;SDS011;38298;50.346;3.526;2023-05-10T11:17:24;6.30;;;3.85;;
52368;SDS011;38298;50.346;3.526;2023-05-10T11:22:53;8.15;;;3.92;;
52368;SDS011;38298;50.346;3.526;2023-05-10T11:25:22;9.05;;;4.35;;
52368;SDS011;38298;50.346;3.526;2023-05-10T11:27:51;6.22;;;3.20;;
52368;SDS011;38298;50.346;3.526;2023-05-10T11:30:17;8.23;;;2.95;;
52368;SDS011;38298;50.346;3.526;2023-05-10T11:32:43;7.13;;;3.42;;
52368;SDS011;38298;50.346;3.526;2023-05-10T11:35:10;6.30;;;2.92;;
52368;SDS011;38298;50.346;3.526;2023-05-10T11:37:37;5.63;;;2.78;;
52368;SDS011;38298;50.346;3.526;2023-05-10T11:40:06;3.55;;;3.13;;
52368;SDS011;38298;50.346;3.526;2023-05-10T11:42:32;6.60;;;3.33;;
52368;SDS011;38298;50.346;3.526;2023-05-10T11:45:00;6.10;;;3.10;;
52368;SDS011;38298;50.346;3.526;2023-05-10T11:47:26;6.88;;;2.90;;
52368;SDS011;38298;50.346;3.526;2023-05-10T11:49:52;5.50;;;3.05;;
52368;SDS011;38298;50.346;3.526;2023-05-10T11:52:18;6.32;;;3.30;;
52368;SDS011;38298;50.346;3.526;2023-05-10T11:54:46;6.10;;;3.05;;
52368;SDS011;38298;50.346;3.526;2023-05-10T11:57:17;8.05;;;3.15;;
52368;SDS011;38298;50.346;3.526;2023-05-10T11:59:44;6.05;;;3.00;;
52368;SDS011;38298;50.346;3.526;2023-05-10T12:02:10;5.75;;;3.13;;
52368;SDS011;38298;50.346;3.526;2023-05-10T12:04:37;3.60;;;2.85;;
52368;SDS011;38298;50.346;3.526;2023-05-10T12:07:03;3.92;;;2.75;;
52368;SDS011;38298;50.346;3.526;2023-05-10T12:09:29;5.65;;;3.58;;
52368;SDS011;38298;50.346;3.526;2023-05-10T12:11:55;5.57;;;2.97;;
52368;SDS011;38298;50.346;3.526;2023-05-10T12:14:25;5.63;;;3.42;;
52368;SDS011;38298;50.346;3.526;2023-05-10T12:16:51;4.93;;;2.95;;
52368;SDS011;38298;50.346;3.526;2023-05-10T12:19:18;4.95;;;2.95;;
52368;SDS011;38298;50.346;3.526;2023-05-10T12:21:45;7.43;;;2.92;;
52368;SDS011;38298;50.346;3.526;2023-05-10T12:24:11;3.42;;;2.50;;
52368;SDS011;38298;50.346;3.526;2023-05-10T12:26:39;8.25;;;2.97;;
52368;SDS011;38298;50.346;3.526;2023-05-10T12:29:12;3.85;;;3.03;;
52368;SDS011;38298;50.346;3.526;2023-05-10T12:31:54;7.85;;;3.05;;
52368;SDS011;38298;50.346;3.526;2023-05-10T12:34:30;8.30;;;3.03;;
52368;SDS011;38298;50.346;3.526;2023-05-10T12:36:56;4.88;;;2.97;;
52368;SDS011;38298;50.346;3.526;2023-05-10T12:39:23;5.90;;;3.05;;
52368;SDS011;38298;50.346;3.526;2023-05-10T12:41:50;6.28;;;2.95;;
52368;SDS011;38298;50.346;3.526;2023-05-10T12:44:16;8.77;;;3.22;;
52368;SDS011;38298;50.346;3.526;2023-05-10T12:46:42;7.25;;;2.95;;
52368;SDS011;38298;50.346;3.526;2023-05-10T12:49:08;6.18;;;2.95;;
52368;SDS011;38298;50.346;3.526;2023-05-10T12:51:35;6.45;;;3.15;;
52368;SDS011;38298;50.346;3.526;2023-05-10T12:54:02;7.03;;;3.30;;
52368;SDS011;38298;50.346;3.526;2023-05-10T12:56:28;9.35;;;3.40;;
52368;SDS011;38298;50.346;3.526;2023-05-10T12:58:54;10.40;;;3.10;;
52368;SDS011;38298;50.346;3.526;2023-05-10T13:01:20;7.00;;;3.45;;
52368;SDS011;38298;50.346;3.526;2023-05-10T13:03:46;7.47;;;3.30;;
52368;SDS011;38298;50.346;3.526;2023-05-10T13:06:13;8.85;;;3.53;;
52368;SDS011;38298;50.346;3.526;2023-05-10T13:08:39;7.05;;;3.83;;
52368;SDS011;38298;50.346;3.526;2023-05-10T13:11:05;8.02;;;2.85;;
52368;SDS011;38298;50.346;3.526;2023-05-10T13:13:31;8.60;;;2.67;;
52368;SDS011;38298;50.346;3.526;2023-05-10T13:15:57;4.18;;;1.85;;
52368;SDS011;38298;50.346;3.526;2023-05-10T13:18:23;5.20;;;1.88;;
52368;SDS011;38298;50.346;3.526;2023-05-10T13:20:51;4.47;;;1.80;;
52368;SDS011;38298;50.346;3.526;2023-05-10T13:23:17;3.45;;;1.83;;
52368;SDS011;38298;50.346;3.526;2023-05-10T13:25:43;6.72;;;1.90;;
52368;SDS011;38298;50.346;3.526;2023-05-10T13:28:09;5.40;;;2.05;;
52368;SDS011;38298;50.346;3.526;2023-05-10T13:30:35;7.47;;;2.42;;
52368;SDS011;38298;50.346;3.526;2023-05-10T13:33:01;5.90;;;2.53;;
52368;SDS011;38298;50.346;3.526;2023-05-10T13:35:27;6.82;;;2.63;;
52368;SDS011;38298;50.346;3.526;2023-05-10T13:37:53;4.38;;;2.00;;
52368;SDS011;38298;50.346;3.526;2023-05-10T13:40:21;6.03;;;2.50;;
52368;SDS011;38298;50.346;3.526;2023-05-10T13:42:47;7.30;;;2.42;;
52368;SDS011;38298;50.346;3.526;2023-05-10T13:45:13;4.20;;;2.00;;
52368;SDS011;38298;50.346;3.526;2023-05-10T13:47:39;8.18;;;2.33;;
52368;SDS011;38298;50.346;3.526;2023-05-10T13:50:06;4.55;;;1.85;;
52368;SDS011;38298;50.346;3.526;2023-05-10T13:52:32;7.63;;;1.80;;
52368;SDS011;38298;50.346;3.526;2023-05-10T13:54:58;3.83;;;1.90;;
52368;SDS011;38298;50.346;3.526;2023-05-10T13:57:24;8.05;;;2.20;;
52368;SDS011;38298;50.346;3.526;2023-05-10T13:59:51;4.57;;;1.80;;
52368;SDS011;38298;50.346;3.526;2023-05-10T14:02:17;4.30;;;1.60;;
52368;SDS011;38298;50.346;3.526;2023-05-10T14:04:43;6.57;;;1.85;;
52368;SDS011;38298;50.346;3.526;2023-05-10T14:07:09;4.75;;;1.60;;
52368;SDS011;38298;50.346;3.526;2023-05-10T14:09:35;4.20;;;1.50;;
52368;SDS011;38298;50.346;3.526;2023-05-10T14:12:01;4.63;;;1.58;;
52368;SDS011;38298;50.346;3.526;2023-05-10T14:14:27;4.15;;;2.08;;
52368;SDS011;38298;50.346;3.526;2023-05-10T14:16:54;5.57;;;3.03;;
52368;SDS011;38298;50.346;3.526;2023-05-10T14:19:20;10.65;;;3.17;;
52368;SDS011;38298;50.346;3.526;2023-05-10T14:21:46;7.78;;;2.78;;
52368;SDS011;38298;50.346;3.526;2023-05-10T14:24:12;14.40;;;4.18;;
52368;SDS011;38298;50.346;3.526;2023-05-10T14:26:38;12.32;;;4.57;;
52368;SDS011;38298;50.346;3.526;2023-05-10T14:29:04;10.32;;;4.43;;
52368;SDS011;38298;50.346;3.526;2023-05-10T14:31:30;11.88;;;4.30;;
52368;SDS011;38298;50.346;3.526;2023-05-10T14:33:56;9.30;;;3.83;;
52368;SDS011;38298;50.346;3.526;2023-05-10T14:36:22;7.15;;;2.70;;
52368;SDS011;38298;50.346;3.526;2023-05-10T14:38:48;5.75;;;1.90;;
52368;SDS011;38298;50.346;3.526;2023-05-10T14:41:17;3.17;;;1.50;;
52368;SDS011;38298;50.346;3.526;2023-05-10T14:43:43;4.30;;;1.50;;
52368;SDS011;38298;50.346;3.526;2023-05-10T14:46:09;6.80;;;2.50;;
52368;SDS011;38298;50.346;3.526;2023-05-10T14:48:36;9.00;;;2.60;;
52368;SDS011;38298;50.346;3.526;2023-05-10T14:51:02;9.38;;;3.55;;
52368;SDS011;38298;50.346;3.526;2023-05-10T14:53:28;11.23;;;2.20;;
52368;SDS011;38298;50.346;3.526;2023-05-10T14:55:54;7.00;;;2.85;;
52368;SDS011;38298;50.346;3.526;2023-05-10T14:58:20;8.57;;;3.22;;
52368;SDS011;38298;50.346;3.526;2023-05-10T15:00:46;6.68;;;2.13;;
52368;SDS011;38298;50.346;3.526;2023-05-10T15:03:12;4.50;;;1.80;;
52368;SDS011;38298;50.346;3.526;2023-05-10T15:05:38;7.28;;;1.92;;
52368;SDS011;38298;50.346;3.526;2023-05-10T15:08:04;7.55;;;2.15;;